logo
Search for airport 
image banner adimage banner adimage banner ad
image banner ad

LSZG - Grenchen

Located in Grenchen, Switzerland

ICAO - LSZG, IATA - ZHI

Data provided by Airmate  

General information

Coordinates: N47°10'53" E7°24'59"
Elevation is 1411 feet MSL.
Magnetic variation is 2.098° East
View others Airports in Solothurn

Operational data

Special qualification required
Current time UTC:
Current local time:
Weather
METAR: Data unavailable at the moment
TAF: TAF LSZG 231425Z 2315/2324 23008KT 9999 FEW030 PROB40 TEMPO 2315/2324 SHRA SCT040TCU
View NOTAMs / SUP AIP / TFR affecting this airport [VIEW]
Communications frequencies: [VIEW]

Runways:

RWY identifierQFULength (ft)Width (ft)SurfaceLDA (ft)
06L66°128059GRASS
24R246°128059GRASS
06R66°229798GRASS
24L246°229798GRASS
0666°328175ASPH2838
24 GLD229798GRASS
24246°328175ASPH3281
24G246°00UNK
06G66°00UNK

Airport contact information

Address: Grenchen Switzerland

Other aviation service providers

Flight schools

Heli-West-Schulungs Gmbh

Heli-West-Schulungs Gmbh
info@heli-west.ch+41326527518
+41797204444

Maximair Ag

Maximair Ag
info@maximair.ch+41326525544

Aviation club (not for profit)

Segel-Und Motorflugruppe Grenchen

Segel-Und Motorflugruppe Grenchen

Satellite view of LSZG